Selma, OR (97538)

12:36 AM PDT on August 29, 2015 (GMT -0700)
Lakeshore Drive | | Change Station
CLOSE
Current Station
Personal Weather Station
Location: Selma, OR
Elevation: 1394 ft
Nearby Weather Stations

Elev 1394 ft 42.27 °N, 123.55 °W | Updated 1 minute ago

Overcast
Overcast
72.1 °F
Feels Like 77 °F
N
3.0
Wind Variable Wind from South
Gusts 3.0 mph

Today
High -- | Low -- °F
--% Chance of Precip.
Yesterday
High -- | Low -- °F
Precip. -- in
6:36 AM 7:53 PM
Full, 100% visible
Pressure 29.65 in
Visibility 7.0 miles
Clouds Clear
Heat Index 77 °F
Dew Point 54 °F
Humidity 54%
Rainfall 0.00 in
Snow Depth Not available.
UV 0 out of 12
Pollen 5.40 out of 12
Air Quality Not available.
Flu Activity Not available.
METAR KMFR 290653Z AUTO 26004KT 7SM FU CLR 22/11 A2968 RMK AO2 SLP040 T02220106
Pressure 29.65 in
Visibility 7.0 miles
Clouds Clear
Heat Index 77 °F
Dew Point 54 °F
Humidity 54%
Rainfall 0.00 in
Snow Depth Not available.
UV 0 out of 12
Pollen 5.40 out of 12
Air Quality Not available.
Flu Activity Not available.
METAR KMFR 290653Z AUTO 26004KT 7SM FU CLR 22/11 A2968 RMK AO2 SLP040 T02220106

10-Day Weather Forecast

×

Almanac

Astronomy

Aug. 29, 2015 Rise Set
Actual Time
Civil Twilight
Nautical Twilight
Astronomical Twilight
Moon
Length of Visible Light
Length of Day
Tomorrow will be .
, % of the Moon is Illuminated

Today's Extremes

State Highs State Lows

Community

WunderPhotos

Upload Photos

1,850,634 photos uploaded!

WunderBlogs® & News

Nearby

Air Quality

  Air Quality AQ Index Pollutant
Not available.

Snow Depth

Station Depth Elevation

Earthquake Activity

City Distance Mag. Time & Date
Minimum magnitude displayed is 2.5.

Coastal Water Temperatures

Place Temperature

Stations

Nearby Weather Stations

Station Location Temp. Windchill Dew Point Humidity Wind Precip. Elev Updated Type